sensor_id;sensor_type;location;lat;lon;timestamp;temperature;humidity
6986;DHT22;3533;51.246;6.850;2023-02-28T00:00:22;19.30;37.00
6986;DHT22;3533;51.246;6.850;2023-02-28T00:02:47;19.30;37.00
6986;DHT22;3533;51.246;6.850;2023-02-28T00:05:16;19.30;37.00
6986;DHT22;3533;51.246;6.850;2023-02-28T00:07:41;19.30;37.00
6986;DHT22;3533;51.246;6.850;2023-02-28T00:10:18;19.30;37.00
6986;DHT22;3533;51.246;6.850;2023-02-28T00:12:47;19.30;36.90
6986;DHT22;3533;51.246;6.850;2023-02-28T00:15:12;19.30;37.00
6986;DHT22;3533;51.246;6.850;2023-02-28T00:17:38;19.30;37.00
6986;DHT22;3533;51.246;6.850;2023-02-28T00:20:05;19.30;36.90
6986;DHT22;3533;51.246;6.850;2023-02-28T00:22:36;19.30;37.00
6986;DHT22;3533;51.246;6.850;2023-02-28T00:25:02;19.30;36.90
6986;DHT22;3533;51.246;6.850;2023-02-28T00:27:29;19.30;36.90
6986;DHT22;3533;51.246;6.850;2023-02-28T00:29:54;19.30;36.90
6986;DHT22;3533;51.246;6.850;2023-02-28T00:32:20;19.30;36.80
6986;DHT22;3533;51.246;6.850;2023-02-28T00:34:45;19.30;36.90
6986;DHT22;3533;51.246;6.850;2023-02-28T00:37:12;19.30;36.80
6986;DHT22;3533;51.246;6.850;2023-02-28T00:39:38;19.30;36.80
6986;DHT22;3533;51.246;6.850;2023-02-28T00:42:04;19.30;36.90
6986;DHT22;3533;51.246;6.850;2023-02-28T00:44:31;19.30;36.90
6986;DHT22;3533;51.246;6.850;2023-02-28T00:46:57;19.30;36.80
6986;DHT22;3533;51.246;6.850;2023-02-28T00:49:23;19.30;36.80
6986;DHT22;3533;51.246;6.850;2023-02-28T00:51:49;19.30;36.80
6986;DHT22;3533;51.246;6.850;2023-02-28T00:54:15;19.30;36.90
6986;DHT22;3533;51.246;6.850;2023-02-28T00:56:41;19.30;36.80
6986;DHT22;3533;51.246;6.850;2023-02-28T00:59:07;19.20;36.70
6986;DHT22;3533;51.246;6.850;2023-02-28T01:01:32;19.30;36.80
6986;DHT22;3533;51.246;6.850;2023-02-28T01:03:58;19.30;36.80
6986;DHT22;3533;51.246;6.850;2023-02-28T01:06:23;19.20;36.70
6986;DHT22;3533;51.246;6.850;2023-02-28T01:08:49;19.30;36.90
6986;DHT22;3533;51.246;6.850;2023-02-28T01:11:16;19.30;36.90
6986;DHT22;3533;51.246;6.850;2023-02-28T01:13:44;19.30;36.90
6986;DHT22;3533;51.246;6.850;2023-02-28T01:16:10;19.30;36.90
6986;DHT22;3533;51.246;6.850;2023-02-28T01:18:36;19.20;36.80
6986;DHT22;3533;51.246;6.850;2023-02-28T01:21:07;19.30;36.90
6986;DHT22;3533;51.246;6.850;2023-02-28T01:23:33;19.30;36.80
6986;DHT22;3533;51.246;6.850;2023-02-28T01:26:12;19.30;36.90
6986;DHT22;3533;51.246;6.850;2023-02-28T01:28:38;19.30;37.30
6986;DHT22;3533;51.246;6.850;2023-02-28T01:31:04;19.30;36.90
6986;DHT22;3533;51.246;6.850;2023-02-28T01:33:31;19.30;36.90
6986;DHT22;3533;51.246;6.850;2023-02-28T01:36:00;19.30;36.90
6986;DHT22;3533;51.246;6.850;2023-02-28T01:38:26;19.30;36.90
6986;DHT22;3533;51.246;6.850;2023-02-28T01:40:52;19.20;36.80
6986;DHT22;3533;51.246;6.850;2023-02-28T01:43:29;19.20;36.80
6986;DHT22;3533;51.246;6.850;2023-02-28T01:45:57;19.20;36.90
6986;DHT22;3533;51.246;6.850;2023-02-28T01:48:32;19.20;36.90
6986;DHT22;3533;51.246;6.850;2023-02-28T01:51:01;19.20;36.90
6986;DHT22;3533;51.246;6.850;2023-02-28T01:53:36;19.20;36.90
6986;DHT22;3533;51.246;6.850;2023-02-28T01:56:04;19.20;36.90
6986;DHT22;3533;51.246;6.850;2023-02-28T01:58:31;19.20;36.90
6986;DHT22;3533;51.246;6.850;2023-02-28T02:00:57;19.20;36.90
6986;DHT22;3533;51.246;6.850;2023-02-28T02:03:23;19.20;37.00
6986;DHT22;3533;51.246;6.850;2023-02-28T02:05:49;19.20;36.90
6986;DHT22;3533;51.246;6.850;2023-02-28T02:08:20;19.20;37.00
6986;DHT22;3533;51.246;6.850;2023-02-28T02:10:57;19.20;36.90
6986;DHT22;3533;51.246;6.850;2023-02-28T02:13:35;19.20;36.90
6986;DHT22;3533;51.246;6.850;2023-02-28T02:16:36;19.20;36.90
6986;DHT22;3533;51.246;6.850;2023-02-28T02:19:14;19.20;36.90
6986;DHT22;3533;51.246;6.850;2023-02-28T02:22:02;19.20;36.90
6986;DHT22;3533;51.246;6.850;2023-02-28T02:36:32;19.10;36.80
6986;DHT22;3533;51.246;6.850;2023-02-28T02:39:22;19.20;36.90
6986;DHT22;3533;51.246;6.850;2023-02-28T02:41:53;19.10;36.80
6986;DHT22;3533;51.246;6.850;2023-02-28T02:44:27;19.20;36.90
6986;DHT22;3533;51.246;6.850;2023-02-28T02:46:59;19.20;36.80
6986;DHT22;3533;51.246;6.850;2023-02-28T02:49:31;19.20;36.90
6986;DHT22;3533;51.246;6.850;2023-02-28T02:52:02;19.20;36.80
6986;DHT22;3533;51.246;6.850;2023-02-28T02:54:32;19.20;36.80
6986;DHT22;3533;51.246;6.850;2023-02-28T02:57:13;19.20;36.80
6986;DHT22;3533;51.246;6.850;2023-02-28T02:59:41;19.20;36.80
6986;DHT22;3533;51.246;6.850;2023-02-28T03:02:11;19.20;36.80
6986;DHT22;3533;51.246;6.850;2023-02-28T03:04:45;19.20;36.80
6986;DHT22;3533;51.246;6.850;2023-02-28T03:07:11;19.20;36.70
6986;DHT22;3533;51.246;6.850;2023-02-28T03:09:37;19.20;36.70
6986;DHT22;3533;51.246;6.850;2023-02-28T03:12:03;19.20;36.80
6986;DHT22;3533;51.246;6.850;2023-02-28T03:14:54;19.20;36.80
6986;DHT22;3533;51.246;6.850;2023-02-28T03:28:15;19.20;36.70
6986;DHT22;3533;51.246;6.850;2023-02-28T03:31:00;19.20;36.70
6986;DHT22;3533;51.246;6.850;2023-02-28T03:33:34;19.10;36.70
6986;DHT22;3533;51.246;6.850;2023-02-28T03:36:10;19.20;36.70
6986;DHT22;3533;51.246;6.850;2023-02-28T03:39:02;19.20;36.70
6986;DHT22;3533;51.246;6.850;2023-02-28T03:41:52;19.20;36.70
6986;DHT22;3533;51.246;6.850;2023-02-28T03:45:00;19.20;36.80
6986;DHT22;3533;51.246;6.850;2023-02-28T03:47:36;19.20;36.70
6986;DHT22;3533;51.246;6.850;2023-02-28T03:50:05;19.20;36.70
6986;DHT22;3533;51.246;6.850;2023-02-28T03:52:35;19.20;36.70
6986;DHT22;3533;51.246;6.850;2023-02-28T03:55:05;19.20;36.80
6986;DHT22;3533;51.246;6.850;2023-02-28T03:57:43;19.20;36.70
6986;DHT22;3533;51.246;6.850;2023-02-28T04:00:16;19.20;36.80
6986;DHT22;3533;51.246;6.850;2023-02-28T04:02:43;19.20;36.70
6986;DHT22;3533;51.246;6.850;2023-02-28T04:05:08;19.20;36.70
6986;DHT22;3533;51.246;6.850;2023-02-28T04:07:34;19.20;36.70
6986;DHT22;3533;51.246;6.850;2023-02-28T04:10:00;19.20;36.70
6986;DHT22;3533;51.246;6.850;2023-02-28T04:12:26;19.20;36.70
6986;DHT22;3533;51.246;6.850;2023-02-28T04:14:51;19.20;36.70
6986;DHT22;3533;51.246;6.850;2023-02-28T04:17:17;19.20;36.70
6986;DHT22;3533;51.246;6.850;2023-02-28T04:19:43;19.20;36.70
6986;DHT22;3533;51.246;6.850;2023-02-28T04:22:09;19.20;36.80
6986;DHT22;3533;51.246;6.850;2023-02-28T04:24:35;19.20;36.70
6986;DHT22;3533;51.246;6.850;2023-02-28T04:27:01;19.20;36.70
6986;DHT22;3533;51.246;6.850;2023-02-28T04:29:29;19.20;36.70
6986;DHT22;3533;51.246;6.850;2023-02-28T04:31:55;19.20;36.70
6986;DHT22;3533;51.246;6.850;2023-02-28T04:34:23;19.20;36.60
6986;DHT22;3533;51.246;6.850;2023-02-28T04:36:49;19.20;36.60
6986;DHT22;3533;51.246;6.850;2023-02-28T04:39:16;19.20;36.60
6986;DHT22;3533;51.246;6.850;2023-02-28T04:41:44;19.20;36.60
6986;DHT22;3533;51.246;6.850;2023-02-28T04:44:09;19.20;36.60
6986;DHT22;3533;51.246;6.850;2023-02-28T04:46:35;19.20;36.60
6986;DHT22;3533;51.246;6.850;2023-02-28T04:49:00;19.20;36.60
6986;DHT22;3533;51.246;6.850;2023-02-28T04:51:26;19.20;36.60
6986;DHT22;3533;51.246;6.850;2023-02-28T04:53:52;19.20;36.60
6986;DHT22;3533;51.246;6.850;2023-02-28T04:56:18;19.20;36.60
6986;DHT22;3533;51.246;6.850;2023-02-28T04:58:44;19.20;36.50
6986;DHT22;3533;51.246;6.850;2023-02-28T05:01:19;19.20;36.50
6986;DHT22;3533;51.246;6.850;2023-02-28T05:03:46;19.20;36.50
6986;DHT22;3533;51.246;6.850;2023-02-28T05:06:12;19.20;36.50
6986;DHT22;3533;51.246;6.850;2023-02-28T05:08:38;19.30;36.50
6986;DHT22;3533;51.246;6.850;2023-02-28T05:11:07;19.30;36.50
6986;DHT22;3533;51.246;6.850;2023-02-28T05:13:34;19.30;36.40
6986;DHT22;3533;51.246;6.850;2023-02-28T05:16:01;19.30;36.20
6986;DHT22;3533;51.246;6.850;2023-02-28T05:18:26;19.40;36.20
6986;DHT22;3533;51.246;6.850;2023-02-28T05:20:52;19.40;36.20
6986;DHT22;3533;51.246;6.850;2023-02-28T05:23:17;19.40;36.10
6986;DHT22;3533;51.246;6.850;2023-02-28T05:25:45;19.50;36.10
6986;DHT22;3533;51.246;6.850;2023-02-28T05:28:10;19.50;36.10
6986;DHT22;3533;51.246;6.850;2023-02-28T05:30:36;19.50;36.10
6986;DHT22;3533;51.246;6.850;2023-02-28T05:33:01;19.50;35.80
6986;DHT22;3533;51.246;6.850;2023-02-28T05:35:27;19.50;35.80
6986;DHT22;3533;51.246;6.850;2023-02-28T05:37:52;19.50;35.80
6986;DHT22;3533;51.246;6.850;2023-02-28T05:40:18;19.50;35.90
6986;DHT22;3533;51.246;6.850;2023-02-28T05:42:46;19.50;35.90
6986;DHT22;3533;51.246;6.850;2023-02-28T05:45:11;19.50;36.00
6986;DHT22;3533;51.246;6.850;2023-02-28T05:47:37;19.50;36.00
6986;DHT22;3533;51.246;6.850;2023-02-28T05:50:04;19.50;36.00
6986;DHT22;3533;51.246;6.850;2023-02-28T05:52:29;19.50;36.20
6986;DHT22;3533;51.246;6.850;2023-02-28T05:54:58;19.50;36.20
6986;DHT22;3533;51.246;6.850;2023-02-28T05:57:23;19.50;36.10
6986;DHT22;3533;51.246;6.850;2023-02-28T05:59:49;19.50;36.10
6986;DHT22;3533;51.246;6.850;2023-02-28T06:02:16;19.50;36.10
6986;DHT22;3533;51.246;6.850;2023-02-28T06:04:42;19.50;36.20
6986;DHT22;3533;51.246;6.850;2023-02-28T06:07:08;19.50;36.20
6986;DHT22;3533;51.246;6.850;2023-02-28T06:09:35;19.40;36.10
6986;DHT22;3533;51.246;6.850;2023-02-28T06:12:02;19.40;36.10
6986;DHT22;3533;51.246;6.850;2023-02-28T06:14:31;19.40;36.10
6986;DHT22;3533;51.246;6.850;2023-02-28T06:16:58;19.40;36.90
6986;DHT22;3533;51.246;6.850;2023-02-28T06:19:24;19.40;36.10
6986;DHT22;3533;51.246;6.850;2023-02-28T06:21:52;19.40;36.20
6986;DHT22;3533;51.246;6.850;2023-02-28T06:24:23;19.40;36.20
6986;DHT22;3533;51.246;6.850;2023-02-28T06:26:49;19.40;36.10
6986;DHT22;3533;51.246;6.850;2023-02-28T06:29:15;19.40;36.20
6986;DHT22;3533;51.246;6.850;2023-02-28T06:31:42;19.40;36.20
6986;DHT22;3533;51.246;6.850;2023-02-28T06:34:09;19.40;36.20
6986;DHT22;3533;51.246;6.850;2023-02-28T06:36:40;19.40;36.20
6986;DHT22;3533;51.246;6.850;2023-02-28T06:39:07;19.40;36.20
6986;DHT22;3533;51.246;6.850;2023-02-28T06:41:33;19.40;36.10
6986;DHT22;3533;51.246;6.850;2023-02-28T06:44:04;19.40;36.20
6986;DHT22;3533;51.246;6.850;2023-02-28T06:46:31;19.40;36.20
6986;DHT22;3533;51.246;6.850;2023-02-28T06:48:57;19.40;36.20
6986;DHT22;3533;51.246;6.850;2023-02-28T06:51:22;19.40;36.20
6986;DHT22;3533;51.246;6.850;2023-02-28T06:53:50;19.40;36.20
6986;DHT22;3533;51.246;6.850;2023-02-28T06:56:18;19.40;36.20
6986;DHT22;3533;51.246;6.850;2023-02-28T06:58:50;19.40;36.20
6986;DHT22;3533;51.246;6.850;2023-02-28T07:01:16;19.40;36.20
6986;DHT22;3533;51.246;6.850;2023-02-28T07:03:42;19.40;36.20
6986;DHT22;3533;51.246;6.850;2023-02-28T07:06:07;19.40;36.20
6986;DHT22;3533;51.246;6.850;2023-02-28T07:08:34;19.40;36.10
6986;DHT22;3533;51.246;6.850;2023-02-28T07:11:01;19.40;36.20
6986;DHT22;3533;51.246;6.850;2023-02-28T07:13:27;19.40;36.20
6986;DHT22;3533;51.246;6.850;2023-02-28T07:16:04;19.40;36.10
6986;DHT22;3533;51.246;6.850;2023-02-28T07:18:30;19.30;36.00
6986;DHT22;3533;51.246;6.850;2023-02-28T07:20:56;19.40;36.10
6986;DHT22;3533;51.246;6.850;2023-02-28T07:23:22;19.40;36.10
6986;DHT22;3533;51.246;6.850;2023-02-28T07:25:47;19.40;36.10
6986;DHT22;3533;51.246;6.850;2023-02-28T07:28:14;19.40;36.10
6986;DHT22;3533;51.246;6.850;2023-02-28T07:30:40;19.30;36.00
6986;DHT22;3533;51.246;6.850;2023-02-28T07:33:06;19.30;36.00
6986;DHT22;3533;51.246;6.850;2023-02-28T07:35:32;19.40;36.10
6986;DHT22;3533;51.246;6.850;2023-02-28T07:37:58;19.40;36.00
6986;DHT22;3533;51.246;6.850;2023-02-28T07:40:24;19.30;36.00
6986;DHT22;3533;51.246;6.850;2023-02-28T07:42:50;19.30;36.00
6986;DHT22;3533;51.246;6.850;2023-02-28T07:45:15;19.30;36.00
6986;DHT22;3533;51.246;6.850;2023-02-28T07:47:42;19.30;35.90
6986;DHT22;3533;51.246;6.850;2023-02-28T07:50:09;19.30;35.90
6986;DHT22;3533;51.246;6.850;2023-02-28T07:52:36;19.30;35.90
6986;DHT22;3533;51.246;6.850;2023-02-28T07:55:02;19.30;35.90
6986;DHT22;3533;51.246;6.850;2023-02-28T07:57:27;19.30;35.90
6986;DHT22;3533;51.246;6.850;2023-02-28T07:59:53;19.30;36.00
6986;DHT22;3533;51.246;6.850;2023-02-28T08:02:19;19.30;35.90
6986;DHT22;3533;51.246;6.850;2023-02-28T08:04:45;19.30;35.90
6986;DHT22;3533;51.246;6.850;2023-02-28T08:07:12;19.30;35.90
6986;DHT22;3533;51.246;6.850;2023-02-28T08:09:42;19.30;35.90
6986;DHT22;3533;51.246;6.850;2023-02-28T08:12:08;19.30;35.90
6986;DHT22;3533;51.246;6.850;2023-02-28T08:14:35;19.30;35.90
6986;DHT22;3533;51.246;6.850;2023-02-28T08:17:00;19.30;35.90
6986;DHT22;3533;51.246;6.850;2023-02-28T08:19:26;19.30;35.90
6986;DHT22;3533;51.246;6.850;2023-02-28T08:21:52;19.30;35.90
6986;DHT22;3533;51.246;6.850;2023-02-28T08:24:17;19.30;35.90
6986;DHT22;3533;51.246;6.850;2023-02-28T08:26:43;19.30;35.90
6986;DHT22;3533;51.246;6.850;2023-02-28T08:29:08;19.30;35.90
6986;DHT22;3533;51.246;6.850;2023-02-28T08:31:34;19.30;36.00
6986;DHT22;3533;51.246;6.850;2023-02-28T08:34:07;19.30;35.90
6986;DHT22;3533;51.246;6.850;2023-02-28T08:36:33;19.30;35.90
6986;DHT22;3533;51.246;6.850;2023-02-28T08:38:58;19.30;35.90
6986;DHT22;3533;51.246;6.850;2023-02-28T08:41:25;19.30;35.90
6986;DHT22;3533;51.246;6.850;2023-02-28T08:43:51;19.30;36.00
6986;DHT22;3533;51.246;6.850;2023-02-28T08:46:17;19.30;35.90
6986;DHT22;3533;51.246;6.850;2023-02-28T08:48:43;19.30;36.00
6986;DHT22;3533;51.246;6.850;2023-02-28T08:51:11;19.30;36.00
6986;DHT22;3533;51.246;6.850;2023-02-28T08:53:38;19.30;36.00
6986;DHT22;3533;51.246;6.850;2023-02-28T08:56:07;19.30;36.00
6986;DHT22;3533;51.246;6.850;2023-02-28T08:58:34;19.30;36.00
6986;DHT22;3533;51.246;6.850;2023-02-28T09:01:00;19.30;36.00
6986;DHT22;3533;51.246;6.850;2023-02-28T09:03:26;19.30;36.00
6986;DHT22;3533;51.246;6.850;2023-02-28T09:05:57;19.30;35.90
6986;DHT22;3533;51.246;6.850;2023-02-28T09:08:24;19.30;36.00
6986;DHT22;3533;51.246;6.850;2023-02-28T09:10:50;19.30;36.00
6986;DHT22;3533;51.246;6.850;2023-02-28T09:13:16;19.30;36.00
6986;DHT22;3533;51.246;6.850;2023-02-28T09:15:42;19.30;36.00
6986;DHT22;3533;51.246;6.850;2023-02-28T09:18:08;19.30;36.00
6986;DHT22;3533;51.246;6.850;2023-02-28T09:20:33;19.40;36.10
6986;DHT22;3533;51.246;6.850;2023-02-28T09:22:59;19.30;35.90
6986;DHT22;3533;51.246;6.850;2023-02-28T09:25:24;19.30;36.00
6986;DHT22;3533;51.246;6.850;2023-02-28T09:27:50;19.30;36.00
6986;DHT22;3533;51.246;6.850;2023-02-28T09:30:16;19.40;36.10
6986;DHT22;3533;51.246;6.850;2023-02-28T09:32:41;19.30;35.90
6986;DHT22;3533;51.246;6.850;2023-02-28T09:35:07;19.30;36.00
6986;DHT22;3533;51.246;6.850;2023-02-28T09:37:38;19.40;36.10
6986;DHT22;3533;51.246;6.850;2023-02-28T09:40:04;19.30;36.00
6986;DHT22;3533;51.246;6.850;2023-02-28T09:42:32;19.40;36.00
6986;DHT22;3533;51.246;6.850;2023-02-28T09:45:02;19.30;36.00
6986;DHT22;3533;51.246;6.850;2023-02-28T09:47:36;19.40;36.10
6986;DHT22;3533;51.246;6.850;2023-02-28T09:52:48;19.40;36.00
6986;DHT22;3533;51.246;6.850;2023-02-28T09:55:37;19.40;36.00
6986;DHT22;3533;51.246;6.850;2023-02-28T09:58:05;19.30;35.90
6986;DHT22;3533;51.246;6.850;2023-02-28T10:00:34;19.40;36.00
6986;DHT22;3533;51.246;6.850;2023-02-28T10:03:30;19.40;36.20
6986;DHT22;3533;51.246;6.850;2023-02-28T10:06:17;19.40;36.00
6986;DHT22;3533;51.246;6.850;2023-02-28T10:08:52;19.40;36.00
6986;DHT22;3533;51.246;6.850;2023-02-28T10:11:22;19.30;35.90
6986;DHT22;3533;51.246;6.850;2023-02-28T10:16:29;19.40;36.00
6986;DHT22;3533;51.246;6.850;2023-02-28T10:19:06;19.40;36.00
6986;DHT22;3533;51.246;6.850;2023-02-28T10:21:49;19.30;35.90
6986;DHT22;3533;51.246;6.850;2023-02-28T10:24:23;19.40;36.00
6986;DHT22;3533;51.246;6.850;2023-02-28T10:26:52;19.40;36.00
6986;DHT22;3533;51.246;6.850;2023-02-28T10:29:21;19.30;35.90
6986;DHT22;3533;51.246;6.850;2023-02-28T10:31:46;19.40;36.00
6986;DHT22;3533;51.246;6.850;2023-02-28T10:34:13;19.30;35.90
6986;DHT22;3533;51.246;6.850;2023-02-28T10:36:39;19.40;36.00
6986;DHT22;3533;51.246;6.850;2023-02-28T10:39:34;19.30;35.90
6986;DHT22;3533;51.246;6.850;2023-02-28T10:41:59;19.30;35.90
6986;DHT22;3533;51.246;6.850;2023-02-28T10:44:25;19.40;36.00
6986;DHT22;3533;51.246;6.850;2023-02-28T10:46:51;19.30;35.90
6986;DHT22;3533;51.246;6.850;2023-02-28T10:49:22;19.40;36.00
6986;DHT22;3533;51.246;6.850;2023-02-28T10:51:52;19.40;36.00
6986;DHT22;3533;51.246;6.850;2023-02-28T10:54:23;19.40;36.00
6986;DHT22;3533;51.246;6.850;2023-02-28T10:57:25;19.30;35.90
6986;DHT22;3533;51.246;6.850;2023-02-28T10:59:52;19.40;35.90
6986;DHT22;3533;51.246;6.850;2023-02-28T11:02:36;19.30;35.90
6986;DHT22;3533;51.246;6.850;2023-02-28T11:07:56;19.40;35.90
6986;DHT22;3533;51.246;6.850;2023-02-28T11:10:25;19.40;35.90
6986;DHT22;3533;51.246;6.850;2023-02-28T11:12:55;19.40;36.00
6986;DHT22;3533;51.246;6.850;2023-02-28T11:15:29;19.40;35.80
6986;DHT22;3533;51.246;6.850;2023-02-28T11:20:25;19.40;35.80
6986;DHT22;3533;51.246;6.850;2023-02-28T11:22:52;19.40;35.90
6986;DHT22;3533;51.246;6.850;2023-02-28T11:27:56;19.40;35.90
6986;DHT22;3533;51.246;6.850;2023-02-28T11:32:49;19.40;35.90
6986;DHT22;3533;51.246;6.850;2023-02-28T11:35:23;19.40;35.80
6986;DHT22;3533;51.246;6.850;2023-02-28T11:37:49;19.40;35.80
6986;DHT22;3533;51.246;6.850;2023-02-28T11:40:18;19.40;35.80
6986;DHT22;3533;51.246;6.850;2023-02-28T11:48:27;19.40;35.80
6986;DHT22;3533;51.246;6.850;2023-02-28T11:51:12;19.40;35.80
6986;DHT22;3533;51.246;6.850;2023-02-28T11:53:55;19.40;35.80
6986;DHT22;3533;51.246;6.850;2023-02-28T11:56:39;19.40;36.00
6986;DHT22;3533;51.246;6.850;2023-02-28T11:59:29;19.40;36.00
6986;DHT22;3533;51.246;6.850;2023-02-28T12:04:49;19.40;36.00
6986;DHT22;3533;51.246;6.850;2023-02-28T12:09:53;19.30;35.80
6986;DHT22;3533;51.246;6.850;2023-02-28T12:12:38;19.40;35.90
6986;DHT22;3533;51.246;6.850;2023-02-28T12:18:53;19.40;35.90
6986;DHT22;3533;51.246;6.850;2023-02-28T12:21:32;19.40;35.90
6986;DHT22;3533;51.246;6.850;2023-02-28T12:26:49;19.40;36.00
6986;DHT22;3533;51.246;6.850;2023-02-28T12:29:25;19.30;35.90
6986;DHT22;3533;51.246;6.850;2023-02-28T12:31:56;19.40;36.00
6986;DHT22;3533;51.246;6.850;2023-02-28T12:34:28;19.40;36.00
6986;DHT22;3533;51.246;6.850;2023-02-28T12:36:58;19.40;36.00
6986;DHT22;3533;51.246;6.850;2023-02-28T12:39:34;19.40;36.00
6986;DHT22;3533;51.246;6.850;2023-02-28T12:42:07;19.30;35.90
6986;DHT22;3533;51.246;6.850;2023-02-28T12:44:44;19.30;35.80
6986;DHT22;3533;51.246;6.850;2023-02-28T12:47:15;19.30;35.90
6986;DHT22;3533;51.246;6.850;2023-02-28T12:49:46;19.30;35.80
6986;DHT22;3533;51.246;6.850;2023-02-28T12:52:20;19.40;35.90
6986;DHT22;3533;51.246;6.850;2023-02-28T12:58:08;19.40;35.90
6986;DHT22;3533;51.246;6.850;2023-02-28T13:00:43;19.40;35.90
6986;DHT22;3533;51.246;6.850;2023-02-28T13:05:50;19.40;36.00
6986;DHT22;3533;51.246;6.850;2023-02-28T13:10:51;19.40;35.90
6986;DHT22;3533;51.246;6.850;2023-02-28T13:13:25;19.40;36.00
6986;DHT22;3533;51.246;6.850;2023-02-28T13:20:57;19.40;35.90
6986;DHT22;3533;51.246;6.850;2023-02-28T13:26:21;19.40;35.90
6986;DHT22;3533;51.246;6.850;2023-02-28T13:34:31;19.40;35.80
6986;DHT22;3533;51.246;6.850;2023-02-28T13:39:57;19.40;35.90
6986;DHT22;3533;51.246;6.850;2023-02-28T13:47:54;19.40;36.00
6986;DHT22;3533;51.246;6.850;2023-02-28T14:01:40;19.40;36.00
6986;DHT22;3533;51.246;6.850;2023-02-28T14:06:40;19.30;35.90
6986;DHT22;3533;51.246;6.850;2023-02-28T14:15:33;19.40;35.90
6986;DHT22;3533;51.246;6.850;2023-02-28T14:18:04;19.40;36.00
6986;DHT22;3533;51.246;6.850;2023-02-28T14:20:32;19.30;35.90
6986;DHT22;3533;51.246;6.850;2023-02-28T14:23:20;19.40;36.00
6986;DHT22;3533;51.246;6.850;2023-02-28T14:26:19;19.40;36.00
6986;DHT22;3533;51.246;6.850;2023-02-28T14:29:14;19.40;36.00
6986;DHT22;3533;51.246;6.850;2023-02-28T14:32:23;19.40;36.00
6986;DHT22;3533;51.246;6.850;2023-02-28T14:37:51;19.40;36.00
6986;DHT22;3533;51.246;6.850;2023-02-28T14:40:32;19.30;35.90
6986;DHT22;3533;51.246;6.850;2023-02-28T14:43:03;19.40;36.10
6986;DHT22;3533;51.246;6.850;2023-02-28T14:45:35;19.40;36.00
6986;DHT22;3533;51.246;6.850;2023-02-28T14:48:04;19.40;36.00
6986;DHT22;3533;51.246;6.850;2023-02-28T14:50:36;19.40;36.00
6986;DHT22;3533;51.246;6.850;2023-02-28T14:53:03;19.40;36.20
6986;DHT22;3533;51.246;6.850;2023-02-28T14:55:31;19.40;36.00
6986;DHT22;3533;51.246;6.850;2023-02-28T14:58:02;19.30;35.90
6986;DHT22;3533;51.246;6.850;2023-02-28T15:00:31;19.30;35.90
6986;DHT22;3533;51.246;6.850;2023-02-28T15:02:59;19.40;36.00
6986;DHT22;3533;51.246;6.850;2023-02-28T15:05:34;19.40;36.10
6986;DHT22;3533;51.246;6.850;2023-02-28T15:08:09;19.40;36.10
6986;DHT22;3533;51.246;6.850;2023-02-28T15:10:35;19.40;36.10
6986;DHT22;3533;51.246;6.850;2023-02-28T15:13:05;19.30;36.00
6986;DHT22;3533;51.246;6.850;2023-02-28T15:20:58;19.40;36.00
6986;DHT22;3533;51.246;6.850;2023-02-28T15:23:24;19.40;36.10
6986;DHT22;3533;51.246;6.850;2023-02-28T15:25:51;19.30;36.00
6986;DHT22;3533;51.246;6.850;2023-02-28T15:28:20;19.30;36.00
6986;DHT22;3533;51.246;6.850;2023-02-28T15:30:55;19.40;36.10
6986;DHT22;3533;51.246;6.850;2023-02-28T15:33:32;19.30;36.00
6986;DHT22;3533;51.246;6.850;2023-02-28T15:38:36;19.40;36.10
6986;DHT22;3533;51.246;6.850;2023-02-28T15:41:02;19.30;36.00
6986;DHT22;3533;51.246;6.850;2023-02-28T15:43:37;19.30;36.00
6986;DHT22;3533;51.246;6.850;2023-02-28T15:46:06;19.40;36.10
6986;DHT22;3533;51.246;6.850;2023-02-28T15:48:38;19.40;36.10
6986;DHT22;3533;51.246;6.850;2023-02-28T15:51:19;19.40;36.10
6986;DHT22;3533;51.246;6.850;2023-02-28T15:53:51;19.40;36.10
6986;DHT22;3533;51.246;6.850;2023-02-28T15:56:30;19.40;36.10
6986;DHT22;3533;51.246;6.850;2023-02-28T15:59:04;19.40;36.10
6986;DHT22;3533;51.246;6.850;2023-02-28T16:01:33;19.40;36.10
6986;DHT22;3533;51.246;6.850;2023-02-28T16:04:05;19.30;36.00
6986;DHT22;3533;51.246;6.850;2023-02-28T16:06:39;19.40;36.10
6986;DHT22;3533;51.246;6.850;2023-02-28T16:09:09;19.40;36.10
6986;DHT22;3533;51.246;6.850;2023-02-28T16:11:40;19.40;36.20
6986;DHT22;3533;51.246;6.850;2023-02-28T16:14:08;19.40;36.10
6986;DHT22;3533;51.246;6.850;2023-02-28T16:16:42;19.40;36.10
6986;DHT22;3533;51.246;6.850;2023-02-28T16:19:08;19.40;36.10
6986;DHT22;3533;51.246;6.850;2023-02-28T16:21:33;19.40;36.10
6986;DHT22;3533;51.246;6.850;2023-02-28T16:23:59;19.40;36.10
6986;DHT22;3533;51.246;6.850;2023-02-28T16:26:25;19.40;36.10
6986;DHT22;3533;51.246;6.850;2023-02-28T16:28:52;19.40;36.10
6986;DHT22;3533;51.246;6.850;2023-02-28T16:31:18;19.40;36.10
6986;DHT22;3533;51.246;6.850;2023-02-28T16:33:45;19.40;36.10
6986;DHT22;3533;51.246;6.850;2023-02-28T16:36:14;19.40;36.10
6986;DHT22;3533;51.246;6.850;2023-02-28T16:38:40;19.40;36.10
6986;DHT22;3533;51.246;6.850;2023-02-28T16:41:05;19.40;36.10
6986;DHT22;3533;51.246;6.850;2023-02-28T16:43:31;19.40;36.00
6986;DHT22;3533;51.246;6.850;2023-02-28T16:45:58;19.40;36.10
6986;DHT22;3533;51.246;6.850;2023-02-28T16:48:24;19.40;36.10
6986;DHT22;3533;51.246;6.850;2023-02-28T16:50:50;19.40;36.10
6986;DHT22;3533;51.246;6.850;2023-02-28T16:53:16;19.40;36.10
6986;DHT22;3533;51.246;6.850;2023-02-28T16:55:41;19.40;36.10
6986;DHT22;3533;51.246;6.850;2023-02-28T16:58:10;19.40;36.10
6986;DHT22;3533;51.246;6.850;2023-02-28T17:00:38;19.40;36.10
6986;DHT22;3533;51.246;6.850;2023-02-28T17:03:04;19.40;36.20
6986;DHT22;3533;51.246;6.850;2023-02-28T17:05:36;19.40;36.10
6986;DHT22;3533;51.246;6.850;2023-02-28T17:08:03;19.40;36.00
6986;DHT22;3533;51.246;6.850;2023-02-28T17:10:29;19.40;36.10
6986;DHT22;3533;51.246;6.850;2023-02-28T17:12:54;19.40;36.10
6986;DHT22;3533;51.246;6.850;2023-02-28T17:15:20;19.40;36.10
6986;DHT22;3533;51.246;6.850;2023-02-28T17:17:48;19.40;36.10
6986;DHT22;3533;51.246;6.850;2023-02-28T17:20:17;19.40;36.10
6986;DHT22;3533;51.246;6.850;2023-02-28T17:22:42;19.40;36.10
6986;DHT22;3533;51.246;6.850;2023-02-28T17:25:09;19.40;36.10
6986;DHT22;3533;51.246;6.850;2023-02-28T17:27:36;19.40;36.10
6986;DHT22;3533;51.246;6.850;2023-02-28T17:30:02;19.40;36.10
6986;DHT22;3533;51.246;6.850;2023-02-28T17:32:28;19.40;36.10
6986;DHT22;3533;51.246;6.850;2023-02-28T17:34:53;19.40;36.30
6986;DHT22;3533;51.246;6.850;2023-02-28T17:37:19;19.40;36.10
6986;DHT22;3533;51.246;6.850;2023-02-28T17:39:45;19.40;36.10
6986;DHT22;3533;51.246;6.850;2023-02-28T17:42:10;19.40;36.10
6986;DHT22;3533;51.246;6.850;2023-02-28T17:44:36;19.40;36.10
6986;DHT22;3533;51.246;6.850;2023-02-28T17:47:03;19.40;36.10
6986;DHT22;3533;51.246;6.850;2023-02-28T17:49:28;19.40;36.10
6986;DHT22;3533;51.246;6.850;2023-02-28T17:51:54;19.40;36.10
6986;DHT22;3533;51.246;6.850;2023-02-28T17:54:19;19.40;36.20
6986;DHT22;3533;51.246;6.850;2023-02-28T17:56:45;19.40;36.10
6986;DHT22;3533;51.246;6.850;2023-02-28T17:59:12;19.40;36.20
6986;DHT22;3533;51.246;6.850;2023-02-28T18:01:38;19.40;36.20
6986;DHT22;3533;51.246;6.850;2023-02-28T18:04:04;19.40;36.20
6986;DHT22;3533;51.246;6.850;2023-02-28T18:06:41;19.40;36.20
6986;DHT22;3533;51.246;6.850;2023-02-28T18:09:14;19.40;36.20
6986;DHT22;3533;51.246;6.850;2023-02-28T18:11:39;19.40;36.20
6986;DHT22;3533;51.246;6.850;2023-02-28T18:14:13;19.40;36.10